Time;durP1;ratioP1;P1;durP2;ratioP2;P2;SDS_P1;SDS_P2;PMS_P1;PMS_P2;Temp;Humidity;BMP_temperature;BMP_pressure;BME280_temperature;BME280_humidity;BME280_pressure;Samples;Min_cycle;Max_cycle;Signal;HPM_P1;HPM_P2
2021/10/13 00:01:53;;;;;;;21.00;3.83;;;;;;;;;;5031504;28;20021;-45
2021/10/13 00:04:20;;;;;;;18.20;3.92;;;;;;;;;;5030043;28;20049;-44
2021/10/13 00:06:47;;;;;;;14.18;3.85;;;;;;;;;;5029726;28;20079;-44
2021/10/13 00:09:14;;;;;;;23.42;4.65;;;;;;;;;;5030826;28;20105;-48
2021/10/13 00:11:41;;;;;;;17.42;3.97;;;;;;;;;;5031328;28;20531;-49
2021/10/13 00:14:09;;;;;;;19.67;4.38;;;;;;;;;;5030824;28;20068;-42
2021/10/13 00:16:36;;;;;;;21.20;4.38;;;;;;;;;;5030317;28;20037;-46
2021/10/13 00:19:04;;;;;;;18.35;4.68;;;;;;;;;;5029118;28;20288;-45
2021/10/13 00:21:31;;;;;;;21.60;5.68;;;;;;;;;;5029262;28;20025;-48
2021/10/13 00:23:58;;;;;;;20.63;4.60;;;;;;;;;;5029592;28;20034;-43
2021/10/13 00:26:25;;;;;;;15.00;4.07;;;;;;;;;;5030042;28;20044;-48
2021/10/13 00:28:52;;;;;;;17.95;4.57;;;;;;;;;;5027057;28;20033;-44
2021/10/13 00:31:19;;;;;;;19.95;4.93;;;;;;;;;;5030509;28;20075;-50
2021/10/13 00:33:46;;;;;;;18.48;4.75;;;;;;;;;;5029847;28;20504;-45
2021/10/13 00:36:14;;;;;;;18.55;4.93;;;;;;;;;;5023634;28;20163;-47
2021/10/13 00:38:41;;;;;;;23.08;4.68;;;;;;;;;;5029947;28;20485;-47
2021/10/13 00:41:08;;;;;;;17.55;4.57;;;;;;;;;;5027157;28;20072;-47
2021/10/13 00:43:35;;;;;;;26.95;6.15;;;;;;;;;;5029824;28;20041;-48
2021/10/13 00:46:02;;;;;;;28.80;6.93;;;;;;;;;;5009473;28;20469;-44
2021/10/13 00:48:30;;;;;;;33.00;6.65;;;;;;;;;;5017166;28;20030;-43
2021/10/13 00:50:57;;;;;;;36.28;9.27;;;;;;;;;;5010579;28;20017;-49
2021/10/13 00:53:24;;;;;;;39.53;8.52;;;;;;;;;;4993220;28;20438;-44
2021/10/13 00:55:52;;;;;;;35.22;7.18;;;;;;;;;;5013723;28;20048;-48
2021/10/13 00:58:20;;;;;;;36.83;7.22;;;;;;;;;;5013636;28;20088;-46
2021/10/13 01:00:49;;;;;;;32.42;7.55;;;;;;;;;;5015687;28;20537;-48
2021/10/13 01:03:22;;;;;;;52.85;9.13;;;;;;;;;;5014115;28;20021;-45
2021/10/13 01:05:58;;;;;;;47.22;10.32;;;;;;;;;;5013743;28;20029;-46
2021/10/13 01:08:32;;;;;;;49.33;12.57;;;;;;;;;;5014649;28;20037;-46
2021/10/13 01:11:02;;;;;;;44.60;13.73;;;;;;;;;;5014015;28;20392;-49
2021/10/13 01:13:39;;;;;;;58.08;18.83;;;;;;;;;;5014518;28;20057;-45
2021/10/13 01:16:35;;;;;;;53.35;16.70;;;;;;;;;;5022772;28;20072;-46
2021/10/13 01:19:05;;;;;;;64.85;19.25;;;;;;;;;;5032201;28;20056;-44
2021/10/13 01:21:47;;;;;;;61.80;19.92;;;;;;;;;;5029779;28;20026;-45
2021/10/13 01:24:14;;;;;;;53.95;21.15;;;;;;;;;;5023116;28;20053;-44
2021/10/13 01:27:06;;;;;;;58.22;17.65;;;;;;;;;;5014292;28;20543;-44
2021/10/13 01:29:37;;;;;;;68.13;21.90;;;;;;;;;;5014337;28;20107;-43
2021/10/13 01:32:07;;;;;;;55.40;20.97;;;;;;;;;;5014642;28;20863;-46
2021/10/13 01:34:36;;;;;;;56.50;19.17;;;;;;;;;;5015583;28;20025;-45
2021/10/13 01:37:08;;;;;;;53.35;18.17;;;;;;;;;;5013394;28;20030;-44
2021/10/13 01:39:40;;;;;;;57.42;17.92;;;;;;;;;;5019688;28;20037;-44
2021/10/13 01:42:07;;;;;;;55.70;18.38;;;;;;;;;;5021141;28;20840;-42
2021/10/13 01:44:36;;;;;;;46.97;17.00;;;;;;;;;;5025654;28;20026;-47
2021/10/13 01:47:03;;;;;;;50.33;16.30;;;;;;;;;;5019310;28;20065;-45
2021/10/13 01:49:37;;;;;;;51.72;16.85;;;;;;;;;;5025983;28;20036;-45
2021/10/13 01:52:04;;;;;;;50.42;15.95;;;;;;;;;;5015435;28;20433;-46
2021/10/13 01:54:31;;;;;;;47.20;15.82;;;;;;;;;;5013437;28;20050;-43
2021/10/13 01:57:02;;;;;;;46.05;15.52;;;;;;;;;;5014943;28;20034;-52
2021/10/13 01:59:29;;;;;;;49.70;16.38;;;;;;;;;;5014853;28;20477;-45
2021/10/13 02:01:58;;;;;;;38.80;13.35;;;;;;;;;;5013658;28;20089;-45
2021/10/13 02:04:25;;;;;;;40.85;14.40;;;;;;;;;;5013673;28;20018;-43
2021/10/13 02:06:53;;;;;;;50.90;14.98;;;;;;;;;;5013631;28;20109;-44
2021/10/13 02:09:25;;;;;;;43.67;13.30;;;;;;;;;;5012857;28;20026;-52
2021/10/13 02:11:54;;;;;;;55.22;14.73;;;;;;;;;;5032230;28;20029;-48
2021/10/13 02:14:22;;;;;;;47.28;13.75;;;;;;;;;;5032474;28;20377;-43
2021/10/13 02:16:51;;;;;;;39.75;12.35;;;;;;;;;;5012886;28;20415;-46
2021/10/13 02:19:19;;;;;;;31.92;12.15;;;;;;;;;;5013285;28;20029;-45
2021/10/13 02:21:48;;;;;;;47.85;13.10;;;;;;;;;;5012333;28;20040;-44
2021/10/13 02:24:22;;;;;;;36.50;11.02;;;;;;;;;;5012532;28;20088;-45
2021/10/13 02:26:52;;;;;;;38.47;11.82;;;;;;;;;;5024128;28;20067;-45
2021/10/13 02:29:21;;;;;;;36.20;11.70;;;;;;;;;;5032108;28;20029;-44
2021/10/13 02:31:48;;;;;;;33.80;10.07;;;;;;;;;;5012950;28;20021;-47
2021/10/13 02:34:15;;;;;;;36.10;11.25;;;;;;;;;;5032969;28;21037;-46
2021/10/13 02:36:42;;;;;;;37.20;10.88;;;;;;;;;;5032408;28;20512;-44
2021/10/13 02:39:09;;;;;;;34.60;11.10;;;;;;;;;;5033651;28;20017;-49
2021/10/13 02:41:37;;;;;;;31.98;9.82;;;;;;;;;;5033706;28;20388;-45
2021/10/13 02:44:08;;;;;;;37.75;10.10;;;;;;;;;;5023861;28;20426;-45
2021/10/13 02:46:44;;;;;;;32.22;9.50;;;;;;;;;;5032697;28;20053;-46
2021/10/13 02:49:17;;;;;;;36.42;9.82;;;;;;;;;;5014738;28;20424;-43
2021/10/13 02:51:51;;;;;;;30.75;9.35;;;;;;;;;;5033266;28;20439;-45
2021/10/13 02:54:33;;;;;;;36.75;9.70;;;;;;;;;;5032703;28;20396;-44
2021/10/13 02:57:00;;;;;;;;;;;;;;;;;;5033429;28;20506;-46
2021/10/13 02:59:37;;;;;;;28.45;9.35;;;;;;;;;;5032718;28;20339;-45
2021/10/13 03:02:06;;;;;;;27.27;9.10;;;;;;;;;;5033238;28;20492;-47
2021/10/13 03:04:36;;;;;;;28.02;8.98;;;;;;;;;;5032333;28;20484;-45
2021/10/13 03:07:08;;;;;;;31.08;8.82;;;;;;;;;;5033166;28;20501;-47
2021/10/13 03:09:36;;;;;;;23.40;8.80;;;;;;;;;;5032214;28;20492;-44
2021/10/13 03:12:04;;;;;;;24.92;9.07;;;;;;;;;;5032854;28;20060;-48
2021/10/13 03:14:33;;;;;;;21.20;8.45;;;;;;;;;;5032202;28;20033;-46
2021/10/13 03:17:00;;;;;;;25.00;7.93;;;;;;;;;;5032702;28;20085;-44
2021/10/13 03:19:27;;;;;;;26.65;7.80;;;;;;;;;;5031962;28;20029;-45
2021/10/13 03:21:55;;;;;;;26.33;8.75;;;;;;;;;;5032884;28;20021;-49
2021/10/13 03:24:22;;;;;;;18.75;8.13;;;;;;;;;;5031713;28;20054;-43
2021/10/13 03:26:50;;;;;;;21.30;7.40;;;;;;;;;;5032283;28;20029;-44
2021/10/13 03:29:17;;;;;;;18.88;7.13;;;;;;;;;;5032423;28;20238;-43
2021/10/13 03:31:44;;;;;;;27.30;7.90;;;;;;;;;;5032057;28;20022;-44
2021/10/13 03:34:11;;;;;;;22.17;7.30;;;;;;;;;;5032452;28;20014;-45
2021/10/13 03:36:42;;;;;;;20.63;6.82;;;;;;;;;;5031782;28;20037;-58
2021/10/13 03:39:10;;;;;;;20.42;7.05;;;;;;;;;;5032175;28;20025;-44
2021/10/13 03:41:37;;;;;;;19.90;6.82;;;;;;;;;;5031430;28;20570;-44
2021/10/13 03:44:04;;;;;;;23.75;6.95;;;;;;;;;;5032370;28;20523;-44
2021/10/13 03:46:32;;;;;;;15.13;6.32;;;;;;;;;;5031657;28;20021;-48
2021/10/13 03:48:59;;;;;;;24.77;7.18;;;;;;;;;;5032094;28;20052;-44
2021/10/13 03:51:26;;;;;;;18.13;6.18;;;;;;;;;;5031466;28;20523;-45
2021/10/13 03:53:53;;;;;;;17.88;6.32;;;;;;;;;;5032206;28;20029;-45
2021/10/13 03:56:20;;;;;;;17.27;6.60;;;;;;;;;;5031496;28;20044;-43
2021/10/13 03:58:47;;;;;;;19.85;6.57;;;;;;;;;;5032086;28;20022;-46
2021/10/13 04:01:15;;;;;;;18.80;5.68;;;;;;;;;;5031596;28;20380;-43
2021/10/13 04:03:42;;;;;;;16.27;5.80;;;;;;;;;;5031467;28;20429;-47
2021/10/13 04:06:09;;;;;;;16.90;6.38;;;;;;;;;;5031816;28;20053;-48
2021/10/13 04:08:37;;;;;;;17.88;5.85;;;;;;;;;;5031498;28;20033;-44
2021/10/13 04:11:04;;;;;;;15.20;5.32;;;;;;;;;;5031569;28;20021;-45
2021/10/13 04:13:31;;;;;;;16.90;6.65;;;;;;;;;;5031299;28;20036;-45
2021/10/13 04:15:58;;;;;;;18.85;5.75;;;;;;;;;;5031659;28;20407;-45
2021/10/13 04:18:25;;;;;;;15.82;5.82;;;;;;;;;;5031108;28;20029;-46
2021/10/13 04:20:52;;;;;;;13.40;5.25;;;;;;;;;;5031437;28;20404;-47
2021/10/13 04:23:19;;;;;;;14.95;5.38;;;;;;;;;;5030961;28;20132;-43
2021/10/13 04:25:47;;;;;;;18.65;5.70;;;;;;;;;;5031430;28;20037;-45
2021/10/13 04:28:14;;;;;;;15.38;5.35;;;;;;;;;;5030920;28;20104;-51
2021/10/13 04:30:41;;;;;;;13.48;5.35;;;;;;;;;;5031130;28;20032;-45
2021/10/13 04:33:08;;;;;;;14.85;5.60;;;;;;;;;;5031162;28;20045;-43
2021/10/13 04:35:35;;;;;;;12.88;5.45;;;;;;;;;;5030992;28;20041;-57
2021/10/13 04:38:05;;;;;;;12.07;5.25;;;;;;;;;;5031040;28;20038;-43
2021/10/13 04:40:33;;;;;;;12.77;5.30;;;;;;;;;;5031139;28;20025;-46
2021/10/13 04:43:00;;;;;;;15.70;5.70;;;;;;;;;;5031386;28;20075;-46
2021/10/13 04:45:27;;;;;;;11.30;4.97;;;;;;;;;;5030529;28;20022;-45
2021/10/13 04:47:54;;;;;;;13.98;4.88;;;;;;;;;;5031337;28;20052;-44
2021/10/13 04:50:21;;;;;;;12.10;4.70;;;;;;;;;;5030832;28;20078;-50
2021/10/13 04:52:48;;;;;;;13.75;5.40;;;;;;;;;;5031572;28;20033;-46
2021/10/13 04:55:16;;;;;;;11.85;4.75;;;;;;;;;;5030468;28;20022;-47
2021/10/13 04:57:43;;;;;;;10.43;4.60;;;;;;;;;;5031109;28;20477;-49
2021/10/13 05:00:10;;;;;;;12.73;4.82;;;;;;;;;;5013324;28;20018;-45
2021/10/13 05:02:37;;;;;;;11.02;4.53;;;;;;;;;;5031148;28;20029;-44
2021/10/13 05:05:05;;;;;;;13.73;4.75;;;;;;;;;;5030528;28;20035;-44
2021/10/13 05:07:32;;;;;;;12.93;5.10;;;;;;;;;;5031281;28;20025;-49
2021/10/13 05:09:59;;;;;;;11.05;4.90;;;;;;;;;;5030553;28;20105;-43
2021/10/13 05:12:26;;;;;;;14.70;4.50;;;;;;;;;;5031082;28;20052;-45
2021/10/13 05:14:53;;;;;;;10.60;4.60;;;;;;;;;;5030520;28;20029;-44
2021/10/13 05:17:20;;;;;;;8.40;3.67;;;;;;;;;;5030805;28;20049;-46
2021/10/13 05:19:47;;;;;;;12.45;4.07;;;;;;;;;;5012919;28;20443;-44
2021/10/13 05:22:14;;;;;;;9.88;4.05;;;;;;;;;;5030612;28;20021;-46
2021/10/13 05:24:41;;;;;;;10.82;4.18;;;;;;;;;;5030819;28;20053;-43
2021/10/13 05:27:08;;;;;;;9.48;4.10;;;;;;;;;;5030451;28;20028;-43
2021/10/13 05:29:35;;;;;;;11.50;4.20;;;;;;;;;;5031000;28;20489;-43
2021/10/13 05:32:02;;;;;;;11.95;4.40;;;;;;;;;;5030489;28;20105;-44
2021/10/13 05:34:29;;;;;;;11.20;4.15;;;;;;;;;;5031537;28;20025;-43
2021/10/13 05:36:56;;;;;;;10.35;4.40;;;;;;;;;;5031014;28;20374;-45
2021/10/13 05:39:23;;;;;;;10.35;4.78;;;;;;;;;;5031265;28;20477;-43
2021/10/13 05:41:50;;;;;;;9.38;3.30;;;;;;;;;;5032048;28;20072;-43
2021/10/13 05:44:17;;;;;;;14.90;4.60;;;;;;;;;;5034974;28;20026;-45
2021/10/13 05:46:45;;;;;;;10.55;4.13;;;;;;;;;;5034870;28;20030;-44
2021/10/13 05:49:12;;;;;;;10.60;3.97;;;;;;;;;;5034721;28;20040;-43
2021/10/13 05:51:39;;;;;;;9.32;3.90;;;;;;;;;;5034783;28;20476;-45
2021/10/13 05:54:06;;;;;;;10.05;4.13;;;;;;;;;;5034105;28;20480;-53
2021/10/13 05:56:33;;;;;;;8.60;4.03;;;;;;;;;;5034507;28;20397;-44
2021/10/13 05:59:00;;;;;;;8.45;3.55;;;;;;;;;;5034501;28;20509;-51
2021/10/13 06:01:27;;;;;;;10.73;4.22;;;;;;;;;;5034581;28;20021;-43
2021/10/13 06:03:54;;;;;;;8.40;3.30;;;;;;;;;;5034832;28;20029;-43
2021/10/13 06:06:21;;;;;;;10.32;3.55;;;;;;;;;;5033805;28;20382;-46
2021/10/13 06:08:48;;;;;;;9.75;4.13;;;;;;;;;;5034183;28;20033;-44
2021/10/13 06:11:16;;;;;;;9.23;3.83;;;;;;;;;;5034375;28;20384;-48
2021/10/13 06:13:43;;;;;;;9.20;3.55;;;;;;;;;;5034707;28;20079;-50
2021/10/13 06:16:11;;;;;;;10.10;3.78;;;;;;;;;;5034195;28;20499;-44
2021/10/13 06:18:38;;;;;;;10.75;3.92;;;;;;;;;;5034090;28;20040;-43
2021/10/13 06:21:05;;;;;;;11.88;3.85;;;;;;;;;;5034009;28;20423;-43
2021/10/13 06:23:33;;;;;;;8.63;3.60;;;;;;;;;;5033623;28;20668;-43
2021/10/13 06:26:00;;;;;;;9.07;3.58;;;;;;;;;;5033505;28;20480;-44
2021/10/13 06:28:27;;;;;;;7.18;3.42;;;;;;;;;;5033709;28;20462;-43
2021/10/13 06:30:54;;;;;;;9.88;3.25;;;;;;;;;;5033911;28;20408;-46
2021/10/13 06:33:21;;;;;;;8.40;3.30;;;;;;;;;;5033267;28;20029;-44
2021/10/13 06:35:48;;;;;;;10.18;3.78;;;;;;;;;;5033898;28;20017;-43
2021/10/13 06:38:15;;;;;;;8.27;3.50;;;;;;;;;;5033552;28;20045;-43
2021/10/13 06:40:42;;;;;;;9.95;3.78;;;;;;;;;;5015689;28;20102;-45
2021/10/13 06:43:11;;;;;;;7.20;2.92;;;;;;;;;;5015916;28;20025;-44
2021/10/13 06:45:38;;;;;;;8.40;3.42;;;;;;;;;;5033173;28;20358;-46
2021/10/13 06:48:06;;;;;;;6.80;2.95;;;;;;;;;;5033253;28;20389;-44
2021/10/13 06:50:34;;;;;;;7.28;3.13;;;;;;;;;;5032920;28;20021;-48
2021/10/13 06:53:01;;;;;;;9.65;3.85;;;;;;;;;;5033168;28;20159;-44
2021/10/13 06:55:28;;;;;;;7.50;3.25;;;;;;;;;;5032954;28;20020;-43
2021/10/13 06:57:55;;;;;;;7.03;3.00;;;;;;;;;;5032915;28;20397;-45
2021/10/13 07:00:22;;;;;;;10.45;3.60;;;;;;;;;;5032382;28;20033;-46
2021/10/13 07:02:50;;;;;;;7.82;3.20;;;;;;;;;;5033189;28;20108;-44
2021/10/13 07:05:17;;;;;;;8.20;3.08;;;;;;;;;;5032268;28;20025;-46
2021/10/13 07:07:48;;;;;;;12.55;3.60;;;;;;;;;;5032757;28;20471;-44
2021/10/13 07:10:15;;;;;;;7.00;3.15;;;;;;;;;;5032722;28;20029;-44
2021/10/13 07:12:43;;;;;;;7.72;3.55;;;;;;;;;;5032786;28;20461;-49
2021/10/13 07:15:10;;;;;;;6.85;3.13;;;;;;;;;;5032389;28;20431;-47
2021/10/13 07:17:37;;;;;;;5.25;2.92;;;;;;;;;;5032595;28;20508;-44
2021/10/13 07:20:06;;;;;;;6.60;2.88;;;;;;;;;;5032660;28;20551;-44
2021/10/13 07:22:33;;;;;;;7.47;3.58;;;;;;;;;;5032256;28;20418;-43
2021/10/13 07:25:01;;;;;;;6.72;3.03;;;;;;;;;;5032508;28;20512;-45
2021/10/13 07:27:29;;;;;;;8.10;2.75;;;;;;;;;;5031937;28;20034;-45
2021/10/13 07:29:59;;;;;;;6.60;3.28;;;;;;;;;;5032698;28;20053;-45
2021/10/13 07:32:27;;;;;;;6.90;2.90;;;;;;;;;;5032104;28;20133;-45
2021/10/13 07:34:54;;;;;;;9.85;3.33;;;;;;;;;;5015320;28;20017;-46
2021/10/13 07:37:22;;;;;;;4.88;2.58;;;;;;;;;;5031842;28;20037;-43
2021/10/13 07:39:49;;;;;;;8.05;3.28;;;;;;;;;;5032618;28;20071;-44
2021/10/13 07:42:17;;;;;;;4.57;2.95;;;;;;;;;;5032142;28;20088;-45
2021/10/13 07:44:45;;;;;;;6.68;3.05;;;;;;;;;;5032468;28;20546;-45
2021/10/13 07:47:12;;;;;;;5.25;2.60;;;;;;;;;;5031703;28;20029;-44
2021/10/13 07:49:40;;;;;;;5.05;2.58;;;;;;;;;;5032181;28;20031;-42
2021/10/13 07:52:07;;;;;;;7.75;3.00;;;;;;;;;;5031921;28;20018;-42
2021/10/13 07:54:34;;;;;;;8.50;3.00;;;;;;;;;;5023990;28;20026;-49
2021/10/13 07:57:01;;;;;;;6.63;2.85;;;;;;;;;;5031834;28;20029;-48
2021/10/13 07:59:28;;;;;;;6.93;2.88;;;;;;;;;;5031211;28;20021;-48
2021/10/13 08:01:55;;;;;;;5.68;2.85;;;;;;;;;;5031636;28;20018;-49
2021/10/13 08:04:22;;;;;;;5.93;2.50;;;;;;;;;;5030187;28;20083;-45
2021/10/13 08:06:50;;;;;;;8.55;3.13;;;;;;;;;;5032145;28;20025;-43
2021/10/13 08:09:17;;;;;;;6.60;2.63;;;;;;;;;;5031273;28;20057;-42
2021/10/13 08:11:44;;;;;;;7.78;2.92;;;;;;;;;;5031958;28;20100;-47
2021/10/13 08:14:11;;;;;;;6.65;3.25;;;;;;;;;;5031300;28;20025;-44
2021/10/13 08:16:38;;;;;;;9.13;2.60;;;;;;;;;;5031703;28;20117;-47
2021/10/13 08:19:05;;;;;;;4.53;2.28;;;;;;;;;;5031156;28;20068;-47
2021/10/13 08:21:32;;;;;;;6.07;2.58;;;;;;;;;;5014311;28;20112;-50
2021/10/13 08:23:59;;;;;;;6.78;2.72;;;;;;;;;;5031520;28;20037;-46
2021/10/13 08:26:26;;;;;;;4.32;2.28;;;;;;;;;;5031774;28;20380;-45
2021/10/13 08:28:54;;;;;;;4.43;2.45;;;;;;;;;;5031588;28;20032;-47
2021/10/13 08:31:21;;;;;;;6.63;2.45;;;;;;;;;;5030782;28;20045;-42
2021/10/13 08:33:49;;;;;;;6.63;2.75;;;;;;;;;;5031924;28;20075;-43
2021/10/13 08:36:16;;;;;;;5.07;2.20;;;;;;;;;;5030952;28;20100;-49
2021/10/13 08:38:43;;;;;;;6.10;2.45;;;;;;;;;;5031395;28;20021;-47
2021/10/13 08:41:10;;;;;;;5.40;2.22;;;;;;;;;;5031290;28;20032;-51
2021/10/13 08:43:38;;;;;;;6.07;2.58;;;;;;;;;;5031286;28;20030;-47
2021/10/13 08:46:05;;;;;;;4.68;2.40;;;;;;;;;;5030763;28;20025;-44
2021/10/13 08:48:32;;;;;;;7.63;2.47;;;;;;;;;;5031297;28;20024;-49
2021/10/13 08:50:59;;;;;;;5.55;2.35;;;;;;;;;;5013118;28;20446;-49
2021/10/13 08:53:26;;;;;;;5.05;2.50;;;;;;;;;;5031203;28;20101;-47
2021/10/13 08:55:54;;;;;;;4.47;2.40;;;;;;;;;;5031567;28;20473;-45
2021/10/13 08:58:23;;;;;;;3.33;2.22;;;;;;;;;;5030801;28;20048;-48
2021/10/13 09:00:50;;;;;;;5.72;2.47;;;;;;;;;;5031084;28;20026;-55
2021/10/13 09:03:34;;;;;;;4.68;2.05;;;;;;;;;;5030323;28;20025;-47
2021/10/13 09:06:34;;;;;;;5.70;2.20;;;;;;;;;;5031221;28;20097;-42
2021/10/13 09:09:06;;;;;;;6.25;2.17;;;;;;;;;;4987828;28;20048;-49
2021/10/13 09:11:44;;;;;;;5.18;2.25;;;;;;;;;;5031264;28;20021;-53
2021/10/13 09:14:19;;;;;;;5.97;2.00;;;;;;;;;;5030779;28;20037;-48
2021/10/13 09:16:47;;;;;;;5.95;2.30;;;;;;;;;;5034098;28;20028;-46
2021/10/13 09:19:15;;;;;;;5.22;2.15;;;;;;;;;;5034392;28;20091;-42
2021/10/13 09:21:51;;;;;;;5.90;2.25;;;;;;;;;;5034925;28;20026;-46
2021/10/13 09:24:19;;;;;;;4.72;2.10;;;;;;;;;;5034434;28;20049;-53
2021/10/13 09:26:46;;;;;;;5.45;2.10;;;;;;;;;;5035167;28;20079;-47
2021/10/13 09:29:13;;;;;;;6.07;2.40;;;;;;;;;;5034169;28;20013;-44
2021/10/13 09:31:40;;;;;;;5.80;2.13;;;;;;;;;;5034816;28;20027;-46
2021/10/13 09:34:09;;;;;;;6.65;1.83;;;;;;;;;;5034564;28;20017;-45
2021/10/13 09:36:47;;;;;;;8.27;2.50;;;;;;;;;;5034542;28;20037;-45
2021/10/13 09:39:19;;;;;;;11.98;2.53;;;;;;;;;;5034198;28;20026;-48
2021/10/13 09:41:59;;;;;;;9.90;2.53;;;;;;;;;;5034561;28;20053;-43
2021/10/13 09:44:27;;;;;;;10.15;2.30;;;;;;;;;;5034961;28;20067;-42
2021/10/13 09:47:01;;;;;;;8.35;2.08;;;;;;;;;;5017409;28;20100;-42
2021/10/13 09:49:37;;;;;;;5.13;2.05;;;;;;;;;;5034949;28;20040;-44
2021/10/13 09:52:05;;;;;;;4.95;2.10;;;;;;;;;;5035492;28;20100;-51
2021/10/13 09:54:32;;;;;;;6.95;2.28;;;;;;;;;;5035217;28;20032;-47
2021/10/13 09:56:59;;;;;;;4.63;1.65;;;;;;;;;;5035319;28;20380;-43
2021/10/13 09:59:26;;;;;;;5.65;2.42;;;;;;;;;;5034702;28;20037;-44
2021/10/13 10:01:55;;;;;;;4.80;1.83;;;;;;;;;;5034336;28;20021;-44
2021/10/13 10:04:30;;;;;;;6.13;2.10;;;;;;;;;;5035305;28;20025;-44
2021/10/13 10:06:58;;;;;;;4.22;1.80;;;;;;;;;;5035192;28;20508;-44
2021/10/13 10:09:27;;;;;;;3.78;2.05;;;;;;;;;;5034884;28;20053;-43
2021/10/13 10:12:04;;;;;;;5.35;2.10;;;;;;;;;;5035342;28;20409;-44
2021/10/13 10:14:35;;;;;;;4.18;2.10;;;;;;;;;;5035056;28;20018;-45
2021/10/13 10:17:04;;;;;;;3.40;1.70;;;;;;;;;;5034812;28;20033;-44
2021/10/13 10:19:31;;;;;;;4.60;1.88;;;;;;;;;;5035061;28;20022;-44
2021/10/13 10:22:20;;;;;;;8.77;1.90;;;;;;;;;;5034942;28;20380;-45
2021/10/13 10:24:47;;;;;;;5.45;2.35;;;;;;;;;;5034238;28;20139;-44
2021/10/13 10:27:22;;;;;;;3.72;1.63;;;;;;;;;;5016230;28;20042;-44
2021/10/13 10:29:50;;;;;;;5.22;2.00;;;;;;;;;;5034540;28;20384;-44
2021/10/13 10:32:18;;;;;;;3.15;1.75;;;;;;;;;;5034588;28;20385;-44
2021/10/13 10:35:03;;;;;;;9.70;1.88;;;;;;;;;;5034526;28;20025;-48
2021/10/13 10:37:40;;;;;;;4.65;1.50;;;;;;;;;;5034008;28;20041;-44
2021/10/13 10:40:08;;;;;;;5.35;1.65;;;;;;;;;;5034438;28;20018;-47
2021/10/13 10:42:46;;;;;;;3.30;1.58;;;;;;;;;;5034232;28;20029;-42
2021/10/13 10:45:16;;;;;;;4.35;1.70;;;;;;;;;;5034046;28;20041;-47
2021/10/13 10:47:50;;;;;;;2.15;1.38;;;;;;;;;;5034255;28;20109;-44
2021/10/13 10:50:31;;;;;;;4.50;1.65;;;;;;;;;;5034057;28;20389;-43
2021/10/13 10:53:16;;;;;;;3.85;1.80;;;;;;;;;;5034348;28;20029;-46
2021/10/13 10:55:44;;;;;;;2.88;1.50;;;;;;;;;;5034006;28;20029;-42
2021/10/13 10:58:15;;;;;;;2.55;1.58;;;;;;;;;;5033801;28;20033;-44
2021/10/13 11:00:43;;;;;;;3.83;1.63;;;;;;;;;;5033664;28;20046;-44
2021/10/13 11:03:20;;;;;;;4.30;1.67;;;;;;;;;;5033736;28;20036;-50
2021/10/13 11:05:48;;;;;;;3.30;1.52;;;;;;;;;;5033644;28;20071;-47
2021/10/13 11:08:15;;;;;;;3.97;1.70;;;;;;;;;;5033343;28;20065;-50
2021/10/13 11:10:43;;;;;;;3.75;1.60;;;;;;;;;;5033413;28;20148;-47
2021/10/13 11:13:10;;;;;;;4.15;1.58;;;;;;;;;;5033304;28;20424;-51
2021/10/13 11:15:39;;;;;;;2.53;1.30;;;;;;;;;;5033340;28;20382;-47
2021/10/13 11:18:16;;;;;;;3.28;1.45;;;;;;;;;;5033257;28;20032;-50
2021/10/13 11:20:44;;;;;;;7.00;1.60;;;;;;;;;;5033362;28;20026;-49
2021/10/13 11:23:12;;;;;;;3.95;1.33;;;;;;;;;;5033073;28;20374;-50
2021/10/13 11:25:40;;;;;;;3.28;1.60;;;;;;;;;;5032996;28;20548;-45
2021/10/13 11:28:09;;;;;;;2.95;1.45;;;;;;;;;;5033493;28;20112;-45
2021/10/13 11:30:38;;;;;;;2.78;1.42;;;;;;;;;;5033266;28;20754;-45
2021/10/13 11:33:06;;;;;;;2.05;1.30;;;;;;;;;;5033163;28;20049;-45
2021/10/13 11:35:33;;;;;;;3.05;1.50;;;;;;;;;;5033091;28;20025;-44
2021/10/13 11:38:00;;;;;;;2.67;1.23;;;;;;;;;;5033104;28;20029;-43
2021/10/13 11:40:28;;;;;;;4.95;1.35;;;;;;;;;;5032649;28;20076;-46
2021/10/13 11:42:56;;;;;;;3.65;1.52;;;;;;;;;;5032979;28;20079;-44
2021/10/13 11:45:24;;;;;;;3.83;1.40;;;;;;;;;;5032806;28;20021;-51
2021/10/13 11:47:51;;;;;;;3.78;1.10;;;;;;;;;;5032575;28;20542;-42
2021/10/13 11:50:22;;;;;;;3.65;1.60;;;;;;;;;;5032454;28;20032;-45
2021/10/13 11:52:54;;;;;;;4.57;2.05;;;;;;;;;;5033072;28;20053;-45
2021/10/13 11:55:25;;;;;;;3.13;1.70;;;;;;;;;;5031044;28;20032;-45
2021/10/13 11:57:57;;;;;;;3.72;1.20;;;;;;;;;;5032305;28;20037;-42
2021/10/13 12:00:25;;;;;;;2.30;1.30;;;;;;;;;;5025742;28;20591;-45
2021/10/13 12:03:11;;;;;;;7.03;1.80;;;;;;;;;;5025589;28;20132;-46
2021/10/13 12:05:41;;;;;;;2.90;1.55;;;;;;;;;;5030477;28;20047;-48
2021/10/13 12:08:10;;;;;;;9.40;2.00;;;;;;;;;;5030624;28;20029;-40
2021/10/13 12:10:40;;;;;;;5.72;2.85;;;;;;;;;;5030295;28;20040;-43
2021/10/13 12:13:09;;;;;;;7.70;1.88;;;;;;;;;;5030810;28;20022;-43
2021/10/13 12:15:36;;;;;;;3.78;1.75;;;;;;;;;;5030231;28;20025;-42
2021/10/13 12:18:10;;;;;;;5.80;1.75;;;;;;;;;;5030954;28;20547;-42
2021/10/13 12:20:37;;;;;;;4.57;2.03;;;;;;;;;;5049577;28;20090;-46
2021/10/13 12:23:14;;;;;;;6.65;2.10;;;;;;;;;;5034931;28;20056;-48
2021/10/13 12:25:42;;;;;;;4.43;1.90;;;;;;;;;;5029634;28;20171;-42
2021/10/13 12:28:23;;;;;;;5.70;2.25;;;;;;;;;;5030105;28;20022;-43
2021/10/13 12:30:58;;;;;;;3.80;2.13;;;;;;;;;;5030290;28;20075;-43
2021/10/13 12:33:25;;;;;;;3.35;1.85;;;;;;;;;;5030754;28;20045;-45
2021/10/13 12:35:52;;;;;;;5.22;1.77;;;;;;;;;;5029858;28;20062;-48
2021/10/13 12:38:23;;;;;;;5.82;1.90;;;;;;;;;;5029131;28;20038;-44
2021/10/13 12:41:07;;;;;;;15.25;2.50;;;;;;;;;;5030075;28;20381;-50
2021/10/13 12:43:44;;;;;;;10.38;2.55;;;;;;;;;;5030422;28;20687;-54
2021/10/13 12:46:18;;;;;;;6.68;2.00;;;;;;;;;;5030441;28;20029;-53
2021/10/13 12:48:45;;;;;;;4.35;1.60;;;;;;;;;;5028534;28;20476;-49
2021/10/13 12:51:14;;;;;;;4.60;1.70;;;;;;;;;;5029359;28;20025;-48
2021/10/13 12:53:42;;;;;;;3.47;2.10;;;;;;;;;;5029668;28;20070;-49
2021/10/13 12:56:09;;;;;;;5.70;2.83;;;;;;;;;;5011151;28;20477;-50
2021/10/13 12:58:36;;;;;;;7.07;2.15;;;;;;;;;;5028434;28;20120;-49
2021/10/13 13:01:06;;;;;;;3.35;2.00;;;;;;;;;;5029383;28;20029;-48
2021/10/13 13:03:33;;;;;;;3.58;2.00;;;;;;;;;;5029911;28;20416;-50
2021/10/13 13:06:00;;;;;;;6.70;2.00;;;;;;;;;;5017180;28;20056;-44
2021/10/13 13:08:27;;;;;;;8.55;2.42;;;;;;;;;;5015678;28;20033;-51
2021/10/13 13:10:57;;;;;;;2.85;2.00;;;;;;;;;;5025051;28;20029;-50
2021/10/13 13:13:25;;;;;;;3.83;2.20;;;;;;;;;;5021501;28;20072;-45
2021/10/13 13:15:51;;;;;;;7.28;2.28;;;;;;;;;;5019581;28;20034;-44
2021/10/13 13:18:19;;;;;;;6.68;2.42;;;;;;;;;;5022363;28;20038;-48
2021/10/13 13:20:51;;;;;;;4.47;2.35;;;;;;;;;;5017876;28;20026;-47
2021/10/13 13:23:19;;;;;;;6.25;2.03;;;;;;;;;;5014515;28;20433;-49
2021/10/13 13:25:46;;;;;;;7.47;2.00;;;;;;;;;;5015899;28;20559;-50
2021/10/13 13:28:13;;;;;;;5.85;1.90;;;;;;;;;;5027040;28;20021;-47
2021/10/13 13:30:40;;;;;;;17.17;2.42;;;;;;;;;;5019450;28;20144;-47
2021/10/13 13:33:07;;;;;;;4.75;2.30;;;;;;;;;;5026581;28;20030;-45
2021/10/13 13:35:34;;;;;;;6.32;2.30;;;;;;;;;;5026233;28;20029;-45
2021/10/13 13:38:01;;;;;;;3.97;1.83;;;;;;;;;;5013861;28;20378;-50
2021/10/13 13:40:28;;;;;;;5.95;2.22;;;;;;;;;;5013507;28;20033;-48
2021/10/13 13:42:55;;;;;;;5.10;2.00;;;;;;;;;;5023091;28;20021;-44
2021/10/13 13:45:22;;;;;;;16.27;2.10;;;;;;;;;;5008477;28;20116;-49
2021/10/13 13:47:49;;;;;;;5.25;1.98;;;;;;;;;;5023439;28;20493;-48
2021/10/13 13:50:16;;;;;;;5.63;2.00;;;;;;;;;;5011381;28;20145;-44
2021/10/13 13:52:43;;;;;;;9.15;1.90;;;;;;;;;;5010969;28;20029;-57
2021/10/13 13:55:10;;;;;;;10.02;1.88;;;;;;;;;;5011523;28;20073;-46
2021/10/13 13:57:37;;;;;;;4.18;1.70;;;;;;;;;;5024078;28;20489;-43
2021/10/13 14:00:06;;;;;;;6.40;2.00;;;;;;;;;;5018049;28;20050;-45
2021/10/13 14:02:32;;;;;;;7.15;1.95;;;;;;;;;;5015488;28;20033;-46
2021/10/13 14:04:59;;;;;;;2.97;1.50;;;;;;;;;;4999892;28;20060;-46
2021/10/13 14:07:27;;;;;;;18.25;2.60;;;;;;;;;;5022042;28;20489;-46
2021/10/13 14:09:54;;;;;;;4.95;1.83;;;;;;;;;;5024194;28;20096;-45
2021/10/13 14:12:21;;;;;;;6.97;2.15;;;;;;;;;;5015747;28;20545;-48
2021/10/13 14:14:48;;;;;;;4.05;2.38;;;;;;;;;;5026385;28;20488;-44
2021/10/13 14:17:15;;;;;;;4.15;2.17;;;;;;;;;;5023953;28;20116;-52
2021/10/13 14:19:42;;;;;;;6.95;2.22;;;;;;;;;;5026951;28;20014;-44
2021/10/13 14:22:10;;;;;;;3.90;2.35;;;;;;;;;;5002504;28;20026;-45
2021/10/13 14:24:37;;;;;;;9.55;2.67;;;;;;;;;;5021063;28;20053;-45
2021/10/13 14:27:04;;;;;;;5.70;2.63;;;;;;;;;;5024056;28;20028;-51
2021/10/13 14:29:31;;;;;;;5.70;2.10;;;;;;;;;;5022574;28;20010;-45
2021/10/13 14:31:59;;;;;;;6.10;2.75;;;;;;;;;;5024894;28;20064;-46
2021/10/13 14:34:26;;;;;;;3.72;2.22;;;;;;;;;;5025935;28;20026;-50
2021/10/13 14:36:53;;;;;;;6.90;2.53;;;;;;;;;;5028627;28;20105;-51
2021/10/13 14:39:20;;;;;;;3.88;2.40;;;;;;;;;;5026665;28;20042;-49
2021/10/13 14:41:47;;;;;;;9.82;2.55;;;;;;;;;;5029437;28;20435;-46
2021/10/13 14:44:14;;;;;;;10.55;2.15;;;;;;;;;;5032940;28;20022;-43
2021/10/13 14:46:42;;;;;;;8.90;2.10;;;;;;;;;;5016992;28;20018;-47